Prathersville, Missouri
Current Conditions -  °F | °C
As of 9:54 AM on Saturday 22 Nov 2014 (Local Time) from KCOU Reporting Station
Overcast Overcast  
Wind Chill: 13°   Ceiling: 1800
Heat Index: 13°   Visibility: 10mi
Dew Point:   Wind: 17mph
Humidity: 72%   Direction: 200°SSW
Pressure: 30.04"   Gusts: 24mph
Location:  39.0235°N, 92.2896°W
Report Text: KCOU 221554Z 20015G21KT 10SM BKN018 OVC037 13/08 A3004 RMK AO2 SLP172 T01330083
Loading
Personal Weather Stations






























Interactive Weather Map New forecast layout! Learn more

10-Day Weather Forecast

Advertisements
Track Severe Weather on mobile